sensor_id;sensor_type;location;lat;lon;timestamp;P1;durP1;ratioP1;P2;durP2;ratioP2
8708;SDS011;4391;48.678;9.280;2023-03-01T00:02:22;21.27;;;8.32;;
8708;SDS011;4391;48.678;9.280;2023-03-01T00:04:50;17.90;;;7.55;;
8708;SDS011;4391;48.678;9.280;2023-03-01T00:07:17;19.30;;;7.57;;
8708;SDS011;4391;48.678;9.280;2023-03-01T00:09:43;17.48;;;7.72;;
8708;SDS011;4391;48.678;9.280;2023-03-01T00:12:10;21.08;;;7.45;;
8708;SDS011;4391;48.678;9.280;2023-03-01T00:14:37;17.42;;;8.10;;
8708;SDS011;4391;48.678;9.280;2023-03-01T00:17:04;19.80;;;8.00;;
8708;SDS011;4391;48.678;9.280;2023-03-01T00:19:31;21.57;;;8.43;;
8708;SDS011;4391;48.678;9.280;2023-03-01T00:21:59;20.23;;;8.20;;
8708;SDS011;4391;48.678;9.280;2023-03-01T00:24:26;19.70;;;8.60;;
8708;SDS011;4391;48.678;9.280;2023-03-01T00:26:53;21.10;;;8.43;;
8708;SDS011;4391;48.678;9.280;2023-03-01T00:29:21;22.08;;;9.13;;
8708;SDS011;4391;48.678;9.280;2023-03-01T00:31:48;18.50;;;8.50;;
8708;SDS011;4391;48.678;9.280;2023-03-01T00:34:15;19.08;;;7.85;;
8708;SDS011;4391;48.678;9.280;2023-03-01T00:36:42;21.95;;;8.18;;
8708;SDS011;4391;48.678;9.280;2023-03-01T00:39:11;23.17;;;8.30;;
8708;SDS011;4391;48.678;9.280;2023-03-01T00:41:39;21.13;;;8.35;;
8708;SDS011;4391;48.678;9.280;2023-03-01T00:44:06;19.50;;;7.57;;
8708;SDS011;4391;48.678;9.280;2023-03-01T00:46:33;21.05;;;8.23;;
8708;SDS011;4391;48.678;9.280;2023-03-01T00:49:00;19.13;;;8.38;;
8708;SDS011;4391;48.678;9.280;2023-03-01T00:51:27;19.63;;;8.63;;
8708;SDS011;4391;48.678;9.280;2023-03-01T00:53:57;19.15;;;7.90;;
8708;SDS011;4391;48.678;9.280;2023-03-01T00:56:27;20.07;;;7.83;;
8708;SDS011;4391;48.678;9.280;2023-03-01T00:58:54;18.83;;;8.13;;
8708;SDS011;4391;48.678;9.280;2023-03-01T01:01:22;21.30;;;8.15;;
8708;SDS011;4391;48.678;9.280;2023-03-01T01:03:52;17.65;;;7.95;;
8708;SDS011;4391;48.678;9.280;2023-03-01T01:06:22;20.05;;;8.10;;
8708;SDS011;4391;48.678;9.280;2023-03-01T01:08:51;18.97;;;8.43;;
8708;SDS011;4391;48.678;9.280;2023-03-01T01:11:20;20.42;;;7.43;;
8708;SDS011;4391;48.678;9.280;2023-03-01T01:13:49;20.00;;;8.90;;
8708;SDS011;4391;48.678;9.280;2023-03-01T01:16:18;20.50;;;8.45;;
8708;SDS011;4391;48.678;9.280;2023-03-01T01:18:45;22.73;;;8.30;;
8708;SDS011;4391;48.678;9.280;2023-03-01T01:21:13;22.30;;;9.57;;
8708;SDS011;4391;48.678;9.280;2023-03-01T01:23:41;20.45;;;8.90;;
8708;SDS011;4391;48.678;9.280;2023-03-01T01:26:10;23.40;;;9.25;;
8708;SDS011;4391;48.678;9.280;2023-03-01T01:28:38;19.38;;;8.93;;
8708;SDS011;4391;48.678;9.280;2023-03-01T01:31:06;23.08;;;8.82;;
8708;SDS011;4391;48.678;9.280;2023-03-01T01:33:33;20.30;;;8.00;;
8708;SDS011;4391;48.678;9.280;2023-03-01T01:36:00;20.73;;;8.05;;
8708;SDS011;4391;48.678;9.280;2023-03-01T01:38:27;20.63;;;8.32;;
8708;SDS011;4391;48.678;9.280;2023-03-01T01:40:54;18.98;;;8.10;;
8708;SDS011;4391;48.678;9.280;2023-03-01T01:43:23;22.10;;;8.73;;
8708;SDS011;4391;48.678;9.280;2023-03-01T01:45:52;21.63;;;8.37;;
8708;SDS011;4391;48.678;9.280;2023-03-01T01:48:26;22.63;;;8.98;;
8708;SDS011;4391;48.678;9.280;2023-03-01T01:51:05;21.60;;;8.35;;
8708;SDS011;4391;48.678;9.280;2023-03-01T01:53:35;23.63;;;8.52;;
8708;SDS011;4391;48.678;9.280;2023-03-01T01:56:03;26.75;;;8.60;;
8708;SDS011;4391;48.678;9.280;2023-03-01T01:58:33;20.27;;;8.07;;
8708;SDS011;4391;48.678;9.280;2023-03-01T02:01:00;20.38;;;8.80;;
8708;SDS011;4391;48.678;9.280;2023-03-01T02:03:29;24.50;;;8.88;;
8708;SDS011;4391;48.678;9.280;2023-03-01T02:06:03;22.55;;;9.07;;
8708;SDS011;4391;48.678;9.280;2023-03-01T02:08:33;20.27;;;8.40;;
8708;SDS011;4391;48.678;9.280;2023-03-01T02:11:04;22.30;;;9.40;;
8708;SDS011;4391;48.678;9.280;2023-03-01T02:13:33;20.02;;;8.57;;
8708;SDS011;4391;48.678;9.280;2023-03-01T02:16:02;23.65;;;8.93;;
8708;SDS011;4391;48.678;9.280;2023-03-01T02:18:31;18.30;;;8.18;;
8708;SDS011;4391;48.678;9.280;2023-03-01T02:21:03;18.92;;;8.50;;
8708;SDS011;4391;48.678;9.280;2023-03-01T02:23:37;20.70;;;8.57;;
8708;SDS011;4391;48.678;9.280;2023-03-01T02:26:07;21.75;;;9.10;;
8708;SDS011;4391;48.678;9.280;2023-03-01T02:28:40;18.58;;;8.55;;
8708;SDS011;4391;48.678;9.280;2023-03-01T02:31:09;16.33;;;7.85;;
8708;SDS011;4391;48.678;9.280;2023-03-01T02:33:58;20.85;;;7.88;;
8708;SDS011;4391;48.678;9.280;2023-03-01T02:36:25;21.17;;;7.73;;
8708;SDS011;4391;48.678;9.280;2023-03-01T02:38:55;15.98;;;7.43;;
8708;SDS011;4391;48.678;9.280;2023-03-01T02:41:25;20.85;;;7.88;;
8708;SDS011;4391;48.678;9.280;2023-03-01T02:43:55;20.70;;;8.60;;
8708;SDS011;4391;48.678;9.280;2023-03-01T02:46:23;23.92;;;9.77;;
8708;SDS011;4391;48.678;9.280;2023-03-01T02:48:51;22.40;;;9.63;;
8708;SDS011;4391;48.678;9.280;2023-03-01T02:51:26;20.92;;;9.00;;
8708;SDS011;4391;48.678;9.280;2023-03-01T02:54:05;19.90;;;8.55;;
8708;SDS011;4391;48.678;9.280;2023-03-01T02:56:39;19.45;;;8.43;;
8708;SDS011;4391;48.678;9.280;2023-03-01T02:59:08;24.63;;;9.63;;
8708;SDS011;4391;48.678;9.280;2023-03-01T03:01:35;26.53;;;9.53;;
8708;SDS011;4391;48.678;9.280;2023-03-01T03:04:05;23.65;;;8.88;;
8708;SDS011;4391;48.678;9.280;2023-03-01T03:06:33;20.75;;;9.00;;
8708;SDS011;4391;48.678;9.280;2023-03-01T03:09:00;25.75;;;9.40;;
8708;SDS011;4391;48.678;9.280;2023-03-01T03:11:26;22.23;;;9.57;;
8708;SDS011;4391;48.678;9.280;2023-03-01T03:13:54;18.80;;;9.03;;
8708;SDS011;4391;48.678;9.280;2023-03-01T03:16:24;21.48;;;8.57;;
8708;SDS011;4391;48.678;9.280;2023-03-01T03:18:51;21.20;;;8.90;;
8708;SDS011;4391;48.678;9.280;2023-03-01T03:21:18;22.75;;;9.63;;
8708;SDS011;4391;48.678;9.280;2023-03-01T03:23:45;23.88;;;10.23;;
8708;SDS011;4391;48.678;9.280;2023-03-01T03:26:11;23.43;;;9.53;;
8708;SDS011;4391;48.678;9.280;2023-03-01T03:28:40;23.77;;;9.55;;
8708;SDS011;4391;48.678;9.280;2023-03-01T03:31:07;20.30;;;9.00;;
8708;SDS011;4391;48.678;9.280;2023-03-01T03:33:35;19.10;;;8.55;;
8708;SDS011;4391;48.678;9.280;2023-03-01T03:36:02;21.35;;;9.68;;
8708;SDS011;4391;48.678;9.280;2023-03-01T03:38:30;22.33;;;8.00;;
8708;SDS011;4391;48.678;9.280;2023-03-01T03:41:01;20.90;;;8.75;;
8708;SDS011;4391;48.678;9.280;2023-03-01T03:43:30;18.73;;;8.95;;
8708;SDS011;4391;48.678;9.280;2023-03-01T03:45:59;21.55;;;9.52;;
8708;SDS011;4391;48.678;9.280;2023-03-01T03:48:26;18.83;;;8.32;;
8708;SDS011;4391;48.678;9.280;2023-03-01T03:50:55;23.97;;;9.20;;
8708;SDS011;4391;48.678;9.280;2023-03-01T03:53:23;22.58;;;9.45;;
8708;SDS011;4391;48.678;9.280;2023-03-01T03:55:52;20.60;;;9.05;;
8708;SDS011;4391;48.678;9.280;2023-03-01T03:58:20;20.15;;;8.63;;
8708;SDS011;4391;48.678;9.280;2023-03-01T04:00:49;23.40;;;8.85;;
8708;SDS011;4391;48.678;9.280;2023-03-01T04:03:18;25.30;;;9.57;;
8708;SDS011;4391;48.678;9.280;2023-03-01T04:05:47;19.58;;;8.80;;
8708;SDS011;4391;48.678;9.280;2023-03-01T04:08:16;21.83;;;9.27;;
8708;SDS011;4391;48.678;9.280;2023-03-01T04:10:45;22.95;;;9.02;;
8708;SDS011;4391;48.678;9.280;2023-03-01T04:13:14;24.42;;;9.80;;
8708;SDS011;4391;48.678;9.280;2023-03-01T04:15:42;23.03;;;9.67;;
8708;SDS011;4391;48.678;9.280;2023-03-01T04:18:09;21.63;;;8.63;;
8708;SDS011;4391;48.678;9.280;2023-03-01T04:20:38;22.80;;;9.40;;
8708;SDS011;4391;48.678;9.280;2023-03-01T04:23:06;24.60;;;9.45;;
8708;SDS011;4391;48.678;9.280;2023-03-01T04:25:39;21.80;;;9.13;;
8708;SDS011;4391;48.678;9.280;2023-03-01T04:28:08;23.13;;;9.33;;
8708;SDS011;4391;48.678;9.280;2023-03-01T04:30:35;25.20;;;9.73;;
8708;SDS011;4391;48.678;9.280;2023-03-01T04:33:03;23.23;;;9.60;;
8708;SDS011;4391;48.678;9.280;2023-03-01T04:35:30;24.58;;;9.35;;
8708;SDS011;4391;48.678;9.280;2023-03-01T04:37:58;25.40;;;10.50;;
8708;SDS011;4391;48.678;9.280;2023-03-01T04:40:24;25.23;;;9.60;;
8708;SDS011;4391;48.678;9.280;2023-03-01T04:42:53;22.95;;;9.80;;
8708;SDS011;4391;48.678;9.280;2023-03-01T04:45:20;24.48;;;10.02;;
8708;SDS011;4391;48.678;9.280;2023-03-01T04:47:47;21.08;;;9.38;;
8708;SDS011;4391;48.678;9.280;2023-03-01T04:50:14;21.63;;;9.80;;
8708;SDS011;4391;48.678;9.280;2023-03-01T04:52:45;21.43;;;9.73;;
8708;SDS011;4391;48.678;9.280;2023-03-01T04:55:13;22.48;;;9.18;;
8708;SDS011;4391;48.678;9.280;2023-03-01T04:57:40;26.08;;;9.45;;
8708;SDS011;4391;48.678;9.280;2023-03-01T05:00:12;26.67;;;10.35;;
8708;SDS011;4391;48.678;9.280;2023-03-01T05:02:49;24.50;;;9.35;;
8708;SDS011;4391;48.678;9.280;2023-03-01T05:05:20;25.57;;;9.90;;
8708;SDS011;4391;48.678;9.280;2023-03-01T05:07:50;22.80;;;10.15;;
8708;SDS011;4391;48.678;9.280;2023-03-01T05:10:18;23.75;;;9.77;;
8708;SDS011;4391;48.678;9.280;2023-03-01T05:12:45;21.55;;;9.88;;
8708;SDS011;4391;48.678;9.280;2023-03-01T05:15:13;22.95;;;9.38;;
8708;SDS011;4391;48.678;9.280;2023-03-01T05:17:40;24.97;;;10.17;;
8708;SDS011;4391;48.678;9.280;2023-03-01T05:20:08;24.98;;;9.80;;
8708;SDS011;4391;48.678;9.280;2023-03-01T05:22:36;25.63;;;10.07;;
8708;SDS011;4391;48.678;9.280;2023-03-01T05:25:03;27.63;;;10.88;;
8708;SDS011;4391;48.678;9.280;2023-03-01T05:27:32;23.55;;;9.98;;
8708;SDS011;4391;48.678;9.280;2023-03-01T05:29:59;24.40;;;9.73;;
8708;SDS011;4391;48.678;9.280;2023-03-01T05:32:39;20.35;;;9.82;;
8708;SDS011;4391;48.678;9.280;2023-03-01T05:35:08;21.77;;;9.48;;
8708;SDS011;4391;48.678;9.280;2023-03-01T05:37:38;23.88;;;9.70;;
8708;SDS011;4391;48.678;9.280;2023-03-01T05:40:06;22.00;;;9.82;;
8708;SDS011;4391;48.678;9.280;2023-03-01T05:42:40;22.30;;;9.77;;
8708;SDS011;4391;48.678;9.280;2023-03-01T05:45:08;26.17;;;10.23;;
8708;SDS011;4391;48.678;9.280;2023-03-01T05:47:37;21.92;;;9.55;;
8708;SDS011;4391;48.678;9.280;2023-03-01T05:50:06;23.15;;;10.23;;
8708;SDS011;4391;48.678;9.280;2023-03-01T05:52:33;24.92;;;10.38;;
8708;SDS011;4391;48.678;9.280;2023-03-01T05:55:00;29.43;;;10.47;;
8708;SDS011;4391;48.678;9.280;2023-03-01T05:57:27;23.35;;;9.45;;
8708;SDS011;4391;48.678;9.280;2023-03-01T05:59:54;27.33;;;11.45;;
8708;SDS011;4391;48.678;9.280;2023-03-01T06:02:21;27.58;;;10.23;;
8708;SDS011;4391;48.678;9.280;2023-03-01T06:04:48;24.52;;;10.05;;
8708;SDS011;4391;48.678;9.280;2023-03-01T06:07:17;24.60;;;10.20;;
8708;SDS011;4391;48.678;9.280;2023-03-01T06:09:43;24.30;;;9.90;;
8708;SDS011;4391;48.678;9.280;2023-03-01T06:12:10;28.50;;;10.65;;
8708;SDS011;4391;48.678;9.280;2023-03-01T06:14:37;25.83;;;11.02;;
8708;SDS011;4391;48.678;9.280;2023-03-01T06:17:04;26.80;;;9.43;;
8708;SDS011;4391;48.678;9.280;2023-03-01T06:19:30;22.37;;;10.03;;
8708;SDS011;4391;48.678;9.280;2023-03-01T06:21:57;28.52;;;10.32;;
8708;SDS011;4391;48.678;9.280;2023-03-01T06:24:25;24.65;;;10.00;;
8708;SDS011;4391;48.678;9.280;2023-03-01T06:26:53;22.75;;;9.75;;
8708;SDS011;4391;48.678;9.280;2023-03-01T06:29:20;28.10;;;10.45;;
8708;SDS011;4391;48.678;9.280;2023-03-01T06:31:48;29.57;;;10.63;;
8708;SDS011;4391;48.678;9.280;2023-03-01T06:34:15;24.50;;;9.95;;
8708;SDS011;4391;48.678;9.280;2023-03-01T06:36:42;23.85;;;10.75;;
8708;SDS011;4391;48.678;9.280;2023-03-01T06:39:09;25.95;;;10.77;;
8708;SDS011;4391;48.678;9.280;2023-03-01T06:41:37;22.67;;;9.70;;
8708;SDS011;4391;48.678;9.280;2023-03-01T06:44:03;29.90;;;10.13;;
8708;SDS011;4391;48.678;9.280;2023-03-01T06:46:30;22.90;;;9.50;;
8708;SDS011;4391;48.678;9.280;2023-03-01T06:48:57;24.40;;;10.57;;
8708;SDS011;4391;48.678;9.280;2023-03-01T06:51:24;31.15;;;11.10;;
8708;SDS011;4391;48.678;9.280;2023-03-01T06:53:51;27.13;;;10.32;;
8708;SDS011;4391;48.678;9.280;2023-03-01T06:56:18;26.43;;;11.17;;
8708;SDS011;4391;48.678;9.280;2023-03-01T06:58:46;28.70;;;10.98;;
8708;SDS011;4391;48.678;9.280;2023-03-01T07:01:13;26.40;;;10.93;;
8708;SDS011;4391;48.678;9.280;2023-03-01T07:03:40;26.77;;;9.93;;
8708;SDS011;4391;48.678;9.280;2023-03-01T07:06:09;22.45;;;10.10;;
8708;SDS011;4391;48.678;9.280;2023-03-01T07:08:36;26.83;;;10.63;;
8708;SDS011;4391;48.678;9.280;2023-03-01T07:11:02;27.83;;;11.00;;
8708;SDS011;4391;48.678;9.280;2023-03-01T07:13:30;24.73;;;9.63;;
8708;SDS011;4391;48.678;9.280;2023-03-01T07:15:59;23.55;;;10.85;;
8708;SDS011;4391;48.678;9.280;2023-03-01T07:18:25;26.98;;;9.70;;
8708;SDS011;4391;48.678;9.280;2023-03-01T07:20:52;22.27;;;9.67;;
8708;SDS011;4391;48.678;9.280;2023-03-01T07:23:19;27.10;;;10.88;;
8708;SDS011;4391;48.678;9.280;2023-03-01T07:25:50;27.60;;;9.73;;
8708;SDS011;4391;48.678;9.280;2023-03-01T07:28:17;23.15;;;10.10;;
8708;SDS011;4391;48.678;9.280;2023-03-01T07:30:44;25.95;;;10.65;;
8708;SDS011;4391;48.678;9.280;2023-03-01T07:33:12;26.60;;;10.13;;
8708;SDS011;4391;48.678;9.280;2023-03-01T07:35:39;23.77;;;10.25;;
8708;SDS011;4391;48.678;9.280;2023-03-01T07:38:06;23.85;;;9.43;;
8708;SDS011;4391;48.678;9.280;2023-03-01T07:40:33;23.90;;;10.40;;
8708;SDS011;4391;48.678;9.280;2023-03-01T07:43:00;24.70;;;10.35;;
8708;SDS011;4391;48.678;9.280;2023-03-01T07:45:27;24.17;;;10.50;;
8708;SDS011;4391;48.678;9.280;2023-03-01T07:47:54;23.25;;;10.80;;
8708;SDS011;4391;48.678;9.280;2023-03-01T07:50:23;23.33;;;10.50;;
8708;SDS011;4391;48.678;9.280;2023-03-01T07:52:50;23.70;;;10.73;;
8708;SDS011;4391;48.678;9.280;2023-03-01T07:55:17;26.48;;;10.85;;
8708;SDS011;4391;48.678;9.280;2023-03-01T07:57:44;22.90;;;10.27;;
8708;SDS011;4391;48.678;9.280;2023-03-01T08:00:11;23.30;;;10.80;;
8708;SDS011;4391;48.678;9.280;2023-03-01T08:02:39;25.48;;;11.07;;
8708;SDS011;4391;48.678;9.280;2023-03-01T08:05:07;19.75;;;9.80;;
8708;SDS011;4391;48.678;9.280;2023-03-01T08:07:35;25.55;;;10.93;;
8708;SDS011;4391;48.678;9.280;2023-03-01T08:10:02;32.00;;;10.23;;
8708;SDS011;4391;48.678;9.280;2023-03-01T08:12:29;21.90;;;10.40;;
8708;SDS011;4391;48.678;9.280;2023-03-01T08:14:56;23.85;;;10.75;;
8708;SDS011;4391;48.678;9.280;2023-03-01T08:17:23;23.50;;;10.48;;
8708;SDS011;4391;48.678;9.280;2023-03-01T08:19:50;24.13;;;11.02;;
8708;SDS011;4391;48.678;9.280;2023-03-01T08:22:16;25.53;;;11.27;;
8708;SDS011;4391;48.678;9.280;2023-03-01T08:24:46;24.00;;;10.57;;
8708;SDS011;4391;48.678;9.280;2023-03-01T08:27:14;22.52;;;10.88;;
8708;SDS011;4391;48.678;9.280;2023-03-01T08:29:41;22.85;;;10.70;;
8708;SDS011;4391;48.678;9.280;2023-03-01T08:32:08;22.15;;;10.65;;
8708;SDS011;4391;48.678;9.280;2023-03-01T08:34:35;26.27;;;11.10;;
8708;SDS011;4391;48.678;9.280;2023-03-01T08:37:02;22.73;;;10.93;;
8708;SDS011;4391;48.678;9.280;2023-03-01T08:39:29;22.75;;;11.05;;
8708;SDS011;4391;48.678;9.280;2023-03-01T08:41:57;19.98;;;9.15;;
8708;SDS011;4391;48.678;9.280;2023-03-01T08:44:24;23.90;;;11.20;;
8708;SDS011;4391;48.678;9.280;2023-03-01T08:46:51;21.83;;;11.00;;
8708;SDS011;4391;48.678;9.280;2023-03-01T08:49:20;23.33;;;11.35;;
8708;SDS011;4391;48.678;9.280;2023-03-01T08:51:47;25.13;;;11.70;;
8708;SDS011;4391;48.678;9.280;2023-03-01T08:54:15;19.60;;;10.60;;
8708;SDS011;4391;48.678;9.280;2023-03-01T08:56:43;22.92;;;10.77;;
8708;SDS011;4391;48.678;9.280;2023-03-01T08:59:12;20.50;;;10.47;;
8708;SDS011;4391;48.678;9.280;2023-03-01T09:01:40;23.65;;;10.65;;
8708;SDS011;4391;48.678;9.280;2023-03-01T09:04:09;23.15;;;10.52;;
8708;SDS011;4391;48.678;9.280;2023-03-01T09:06:36;23.63;;;10.52;;
8708;SDS011;4391;48.678;9.280;2023-03-01T09:09:03;23.20;;;10.25;;
8708;SDS011;4391;48.678;9.280;2023-03-01T09:11:31;18.57;;;10.23;;
8708;SDS011;4391;48.678;9.280;2023-03-01T09:13:58;21.85;;;11.00;;
8708;SDS011;4391;48.678;9.280;2023-03-01T09:16:26;20.30;;;10.48;;
8708;SDS011;4391;48.678;9.280;2023-03-01T09:18:54;20.95;;;10.63;;
8708;SDS011;4391;48.678;9.280;2023-03-01T09:21:22;22.88;;;11.20;;
8708;SDS011;4391;48.678;9.280;2023-03-01T09:23:49;21.40;;;10.37;;
8708;SDS011;4391;48.678;9.280;2023-03-01T09:26:17;21.55;;;10.60;;
8708;SDS011;4391;48.678;9.280;2023-03-01T09:28:46;20.77;;;10.02;;
8708;SDS011;4391;48.678;9.280;2023-03-01T09:31:14;18.48;;;9.45;;
8708;SDS011;4391;48.678;9.280;2023-03-01T09:33:45;20.48;;;10.40;;
8708;SDS011;4391;48.678;9.280;2023-03-01T09:36:13;20.93;;;10.80;;
8708;SDS011;4391;48.678;9.280;2023-03-01T09:38:41;23.13;;;10.68;;
8708;SDS011;4391;48.678;9.280;2023-03-01T09:41:09;22.27;;;10.38;;
8708;SDS011;4391;48.678;9.280;2023-03-01T09:43:43;20.45;;;10.75;;
8708;SDS011;4391;48.678;9.280;2023-03-01T09:46:14;22.40;;;11.23;;
8708;SDS011;4391;48.678;9.280;2023-03-01T09:48:42;23.87;;;11.07;;
8708;SDS011;4391;48.678;9.280;2023-03-01T09:51:19;19.58;;;10.23;;
8708;SDS011;4391;48.678;9.280;2023-03-01T09:53:50;21.48;;;10.98;;
8708;SDS011;4391;48.678;9.280;2023-03-01T09:56:19;21.13;;;10.82;;
8708;SDS011;4391;48.678;9.280;2023-03-01T09:58:51;21.33;;;9.98;;
8708;SDS011;4391;48.678;9.280;2023-03-01T10:01:29;20.67;;;10.77;;
8708;SDS011;4391;48.678;9.280;2023-03-01T10:04:04;21.98;;;10.90;;
8708;SDS011;4391;48.678;9.280;2023-03-01T10:06:56;23.38;;;11.32;;
8708;SDS011;4391;48.678;9.280;2023-03-01T10:09:32;26.67;;;11.05;;
8708;SDS011;4391;48.678;9.280;2023-03-01T10:12:02;19.67;;;9.30;;
8708;SDS011;4391;48.678;9.280;2023-03-01T10:14:35;22.87;;;11.10;;
8708;SDS011;4391;48.678;9.280;2023-03-01T10:17:06;19.80;;;11.38;;
8708;SDS011;4391;48.678;9.280;2023-03-01T10:19:40;21.52;;;11.13;;
8708;SDS011;4391;48.678;9.280;2023-03-01T10:22:11;19.40;;;10.13;;
8708;SDS011;4391;48.678;9.280;2023-03-01T10:24:46;18.83;;;9.52;;
8708;SDS011;4391;48.678;9.280;2023-03-01T10:27:15;19.77;;;10.97;;
8708;SDS011;4391;48.678;9.280;2023-03-01T10:29:49;20.27;;;10.65;;
8708;SDS011;4391;48.678;9.280;2023-03-01T10:32:24;20.30;;;11.18;;
8708;SDS011;4391;48.678;9.280;2023-03-01T10:34:53;22.17;;;11.27;;
8708;SDS011;4391;48.678;9.280;2023-03-01T10:37:20;21.27;;;11.45;;
8708;SDS011;4391;48.678;9.280;2023-03-01T10:39:56;21.90;;;11.50;;
8708;SDS011;4391;48.678;9.280;2023-03-01T10:42:26;19.00;;;10.98;;
8708;SDS011;4391;48.678;9.280;2023-03-01T10:44:57;19.95;;;10.23;;
8708;SDS011;4391;48.678;9.280;2023-03-01T10:47:36;20.95;;;10.52;;
8708;SDS011;4391;48.678;9.280;2023-03-01T10:50:05;20.65;;;11.35;;
8708;SDS011;4391;48.678;9.280;2023-03-01T10:52:43;19.10;;;10.60;;
8708;SDS011;4391;48.678;9.280;2023-03-01T10:55:33;18.90;;;11.07;;
8708;SDS011;4391;48.678;9.280;2023-03-01T10:58:09;20.15;;;10.98;;
8708;SDS011;4391;48.678;9.280;2023-03-01T11:00:46;19.38;;;10.80;;
8708;SDS011;4391;48.678;9.280;2023-03-01T11:03:15;19.70;;;10.80;;
8708;SDS011;4391;48.678;9.280;2023-03-01T11:05:53;21.27;;;11.30;;
8708;SDS011;4391;48.678;9.280;2023-03-01T11:08:35;18.10;;;10.30;;
8708;SDS011;4391;48.678;9.280;2023-03-01T11:11:05;18.55;;;10.25;;
8708;SDS011;4391;48.678;9.280;2023-03-01T11:13:50;15.93;;;9.52;;
8708;SDS011;4391;48.678;9.280;2023-03-01T11:16:22;19.75;;;10.23;;
8708;SDS011;4391;48.678;9.280;2023-03-01T11:19:03;23.37;;;10.13;;
8708;SDS011;4391;48.678;9.280;2023-03-01T11:21:44;16.75;;;9.63;;
8708;SDS011;4391;48.678;9.280;2023-03-01T11:24:18;18.33;;;10.50;;
8708;SDS011;4391;48.678;9.280;2023-03-01T11:26:47;21.67;;;11.00;;
8708;SDS011;4391;48.678;9.280;2023-03-01T11:29:21;16.90;;;9.90;;
8708;SDS011;4391;48.678;9.280;2023-03-01T11:31:54;17.03;;;10.30;;
8708;SDS011;4391;48.678;9.280;2023-03-01T11:34:28;15.40;;;9.30;;
8708;SDS011;4391;48.678;9.280;2023-03-01T11:37:07;17.25;;;9.70;;
8708;SDS011;4391;48.678;9.280;2023-03-01T11:39:50;16.35;;;10.55;;
8708;SDS011;4391;48.678;9.280;2023-03-01T11:42:25;15.40;;;9.73;;
8708;SDS011;4391;48.678;9.280;2023-03-01T11:45:02;15.33;;;9.33;;
8708;SDS011;4391;48.678;9.280;2023-03-01T11:47:39;17.00;;;9.93;;
8708;SDS011;4391;48.678;9.280;2023-03-01T11:50:19;15.35;;;9.20;;
8708;SDS011;4391;48.678;9.280;2023-03-01T11:53:01;15.10;;;9.25;;
8708;SDS011;4391;48.678;9.280;2023-03-01T11:55:50;16.67;;;9.82;;
8708;SDS011;4391;48.678;9.280;2023-03-01T11:58:27;15.80;;;10.20;;
8708;SDS011;4391;48.678;9.280;2023-03-01T12:01:12;14.00;;;9.40;;
8708;SDS011;4391;48.678;9.280;2023-03-01T12:03:59;14.13;;;9.30;;
8708;SDS011;4391;48.678;9.280;2023-03-01T12:06:43;14.70;;;9.52;;
8708;SDS011;4391;48.678;9.280;2023-03-01T12:09:30;17.00;;;9.85;;
8708;SDS011;4391;48.678;9.280;2023-03-01T12:12:09;15.70;;;10.27;;
8708;SDS011;4391;48.678;9.280;2023-03-01T12:15:00;18.75;;;10.05;;
8708;SDS011;4391;48.678;9.280;2023-03-01T12:17:48;17.00;;;9.82;;
8708;SDS011;4391;48.678;9.280;2023-03-01T12:20:26;18.20;;;10.98;;
8708;SDS011;4391;48.678;9.280;2023-03-01T12:23:00;17.25;;;9.95;;
8708;SDS011;4391;48.678;9.280;2023-03-01T12:25:43;15.90;;;9.53;;
8708;SDS011;4391;48.678;9.280;2023-03-01T12:28:26;15.02;;;10.18;;
8708;SDS011;4391;48.678;9.280;2023-03-01T12:31:11;15.85;;;9.40;;
8708;SDS011;4391;48.678;9.280;2023-03-01T12:33:53;16.25;;;9.80;;
8708;SDS011;4391;48.678;9.280;2023-03-01T12:39:26;14.35;;;9.20;;
8708;SDS011;4391;48.678;9.280;2023-03-01T12:42:10;15.57;;;9.37;;
8708;SDS011;4391;48.678;9.280;2023-03-01T12:44:49;14.77;;;9.25;;
8708;SDS011;4391;48.678;9.280;2023-03-01T12:50:21;13.45;;;9.25;;
8708;SDS011;4391;48.678;9.280;2023-03-01T12:52:51;13.90;;;9.40;;
8708;SDS011;4391;48.678;9.280;2023-03-01T12:55:24;14.07;;;8.80;;
8708;SDS011;4391;48.678;9.280;2023-03-01T12:57:59;15.20;;;9.20;;
8708;SDS011;4391;48.678;9.280;2023-03-01T13:00:34;15.02;;;9.20;;
8708;SDS011;4391;48.678;9.280;2023-03-01T13:03:09;14.57;;;9.98;;
8708;SDS011;4391;48.678;9.280;2023-03-01T13:05:46;13.23;;;8.70;;
8708;SDS011;4391;48.678;9.280;2023-03-01T13:08:27;13.80;;;9.20;;
8708;SDS011;4391;48.678;9.280;2023-03-01T13:11:03;15.73;;;9.52;;
8708;SDS011;4391;48.678;9.280;2023-03-01T13:13:33;19.63;;;9.93;;
8708;SDS011;4391;48.678;9.280;2023-03-01T13:18:49;15.45;;;10.10;;
8708;SDS011;4391;48.678;9.280;2023-03-01T13:21:28;13.43;;;9.25;;
8708;SDS011;4391;48.678;9.280;2023-03-01T13:23:56;13.65;;;9.32;;
8708;SDS011;4391;48.678;9.280;2023-03-01T13:26:23;13.45;;;9.65;;
8708;SDS011;4391;48.678;9.280;2023-03-01T13:28:52;14.87;;;9.93;;
8708;SDS011;4391;48.678;9.280;2023-03-01T13:37:27;13.85;;;9.10;;
8708;SDS011;4391;48.678;9.280;2023-03-01T13:40:05;15.02;;;9.77;;
8708;SDS011;4391;48.678;9.280;2023-03-01T13:42:51;17.00;;;9.77;;
8708;SDS011;4391;48.678;9.280;2023-03-01T13:45:21;14.00;;;9.77;;
8708;SDS011;4391;48.678;9.280;2023-03-01T13:47:55;15.57;;;9.60;;
8708;SDS011;4391;48.678;9.280;2023-03-01T13:50:25;14.88;;;9.63;;
8708;SDS011;4391;48.678;9.280;2023-03-01T13:52:55;15.63;;;9.65;;
8708;SDS011;4391;48.678;9.280;2023-03-01T13:55:26;17.13;;;9.73;;
8708;SDS011;4391;48.678;9.280;2023-03-01T13:57:59;19.50;;;9.35;;
8708;SDS011;4391;48.678;9.280;2023-03-01T14:00:34;15.70;;;9.50;;
8708;SDS011;4391;48.678;9.280;2023-03-01T14:03:03;16.25;;;9.13;;
8708;SDS011;4391;48.678;9.280;2023-03-01T14:05:34;14.35;;;8.68;;
8708;SDS011;4391;48.678;9.280;2023-03-01T14:08:01;14.90;;;8.50;;
8708;SDS011;4391;48.678;9.280;2023-03-01T14:10:31;16.98;;;9.27;;
8708;SDS011;4391;48.678;9.280;2023-03-01T14:13:06;13.05;;;8.43;;
8708;SDS011;4391;48.678;9.280;2023-03-01T14:15:49;14.15;;;8.52;;
8708;SDS011;4391;48.678;9.280;2023-03-01T14:18:29;20.77;;;9.10;;
8708;SDS011;4391;48.678;9.280;2023-03-01T14:21:07;13.87;;;8.53;;
8708;SDS011;4391;48.678;9.280;2023-03-01T14:23:34;14.88;;;8.80;;
8708;SDS011;4391;48.678;9.280;2023-03-01T14:26:04;14.40;;;8.60;;
8708;SDS011;4391;48.678;9.280;2023-03-01T14:28:31;12.93;;;8.27;;
8708;SDS011;4391;48.678;9.280;2023-03-01T14:31:03;13.25;;;8.10;;
8708;SDS011;4391;48.678;9.280;2023-03-01T14:34:03;11.70;;;7.30;;
8708;SDS011;4391;48.678;9.280;2023-03-01T14:36:31;12.53;;;7.53;;
8708;SDS011;4391;48.678;9.280;2023-03-01T14:38:59;13.05;;;8.57;;
8708;SDS011;4391;48.678;9.280;2023-03-01T14:41:30;15.02;;;8.40;;
8708;SDS011;4391;48.678;9.280;2023-03-01T14:44:01;14.77;;;8.80;;
8708;SDS011;4391;48.678;9.280;2023-03-01T14:46:31;14.40;;;8.55;;
8708;SDS011;4391;48.678;9.280;2023-03-01T14:49:03;15.50;;;9.20;;
8708;SDS011;4391;48.678;9.280;2023-03-01T14:51:35;14.85;;;9.52;;
8708;SDS011;4391;48.678;9.280;2023-03-01T14:54:04;14.65;;;8.90;;
8708;SDS011;4391;48.678;9.280;2023-03-01T14:56:43;14.77;;;8.75;;
8708;SDS011;4391;48.678;9.280;2023-03-01T14:59:11;16.13;;;9.27;;
8708;SDS011;4391;48.678;9.280;2023-03-01T15:01:39;15.23;;;9.03;;
8708;SDS011;4391;48.678;9.280;2023-03-01T15:04:08;16.95;;;9.13;;
8708;SDS011;4391;48.678;9.280;2023-03-01T15:06:38;16.05;;;9.38;;
8708;SDS011;4391;48.678;9.280;2023-03-01T15:09:05;13.73;;;9.43;;
8708;SDS011;4391;48.678;9.280;2023-03-01T15:11:37;18.33;;;9.60;;
8708;SDS011;4391;48.678;9.280;2023-03-01T15:17:02;17.65;;;9.52;;
8708;SDS011;4391;48.678;9.280;2023-03-01T15:19:31;14.63;;;9.10;;
8708;SDS011;4391;48.678;9.280;2023-03-01T15:21:58;16.48;;;9.52;;
8708;SDS011;4391;48.678;9.280;2023-03-01T15:24:37;16.95;;;10.07;;
8708;SDS011;4391;48.678;9.280;2023-03-01T15:27:04;16.23;;;9.33;;
8708;SDS011;4391;48.678;9.280;2023-03-01T15:29:32;19.23;;;9.90;;
8708;SDS011;4391;48.678;9.280;2023-03-01T15:32:06;16.02;;;8.98;;
8708;SDS011;4391;48.678;9.280;2023-03-01T15:34:52;18.38;;;9.05;;